Time;durP1;ratioP1;P1;durP2;ratioP2;P2;SDS_P1;SDS_P2;PMS_P1;PMS_P2;Temp;Humidity;BMP_temperature;BMP_pressure;BME280_temperature;BME280_humidity;BME280_pressure;Samples;Min_cycle;Max_cycle;Signal;HPM_P1;HPM_P2
2022/12/09 00:02:17;;;;;;;50.25;25.55;;;1.80;99.90;;;-144.05;80.80;125687.94;5014820;28;20179;-80
2022/12/09 00:04:43;;;;;;;52.33;26.75;;;1.80;99.90;;;-144.05;81.11;125687.94;5015729;28;20041;-80
2022/12/09 00:07:09;;;;;;;50.97;26.98;;;1.80;99.90;;;-144.05;80.89;125687.94;5015771;28;20057;-80
2022/12/09 00:09:35;;;;;;;50.13;26.85;;;1.80;99.90;;;-144.05;80.44;125687.94;5014480;28;20034;-79
2022/12/09 00:12:01;;;;;;;53.97;27.30;;;1.80;99.90;;;-144.05;80.50;125687.94;5015214;28;20216;-80
2022/12/09 00:14:28;;;;;;;58.10;28.90;;;1.80;99.90;;;-144.05;80.44;125687.94;5015232;28;20148;-79
2022/12/09 00:16:54;;;;;;;51.10;27.33;;;1.80;99.90;;;-144.05;80.52;125687.94;5015217;28;20109;-79
2022/12/09 00:19:20;;;;;;;53.38;29.13;;;1.80;99.90;;;-144.05;80.82;125687.94;5014954;28;20450;-79
2022/12/09 00:21:46;;;;;;;56.90;27.58;;;1.70;99.90;;;-144.05;80.81;125687.94;5014622;28;20069;-78
2022/12/09 00:24:13;;;;;;;59.40;26.85;;;1.70;99.90;;;-144.05;81.11;125687.94;5014874;28;20034;-78
2022/12/09 00:26:40;;;;;;;59.95;28.08;;;1.70;99.90;;;-144.05;80.84;125687.94;5013604;28;20478;-79
2022/12/09 00:29:06;;;;;;;58.85;30.08;;;1.80;99.90;;;-144.05;80.84;125687.94;5013166;28;20140;-80
2022/12/09 00:31:37;;;;;;;60.42;30.08;;;1.80;99.90;;;-144.05;80.91;125687.94;5014621;28;20061;-80
2022/12/09 00:34:11;;;;;;;59.08;28.05;;;1.90;99.90;;;-144.05;81.14;125687.94;5014460;28;20500;-78
2022/12/09 00:36:37;;;;;;;56.38;28.48;;;1.90;99.90;;;-144.05;81.32;125687.94;5014586;28;20127;-79
2022/12/09 00:39:03;;;;;;;60.50;29.77;;;2.00;99.90;;;-144.05;81.54;125687.94;5019138;28;20105;-80
2022/12/09 00:41:29;;;;;;;59.30;29.23;;;2.00;99.90;;;-144.05;81.30;125687.94;5017891;28;20025;-80
2022/12/09 00:43:57;;;;;;;66.10;30.23;;;2.10;99.90;;;-144.05;81.32;125687.94;5015155;28;20036;-80
2022/12/09 00:46:23;;;;;;;62.85;30.50;;;2.10;99.90;;;-144.05;81.21;125687.94;5015483;28;20056;-79
2022/12/09 00:48:49;;;;;;;55.40;29.58;;;2.10;99.90;;;-144.05;80.93;125687.94;5013842;28;20473;-80
2022/12/09 00:51:20;;;;;;;57.55;30.73;;;2.10;99.90;;;-144.05;80.91;125687.94;5015221;28;20098;-79
2022/12/09 00:53:46;;;;;;;54.15;29.00;;;2.10;99.90;;;-144.05;80.96;125687.94;5014161;28;20129;-80
2022/12/09 00:56:13;;;;;;;54.58;27.77;;;2.10;99.90;;;-144.05;80.93;125687.94;5013308;28;20088;-79
2022/12/09 00:58:39;;;;;;;52.80;27.17;;;2.10;99.90;;;-144.05;81.01;125687.94;5013075;28;20034;-79
2022/12/09 01:01:05;;;;;;;53.90;27.67;;;2.10;99.90;;;-144.05;81.13;125687.94;5014116;28;20114;-80
2022/12/09 01:03:31;;;;;;;60.35;28.27;;;2.10;99.90;;;-144.05;81.07;125687.94;5014223;28;20038;-80
2022/12/09 01:05:57;;;;;;;51.17;27.67;;;2.10;99.90;;;-144.05;80.94;125687.94;5013099;28;20045;-80
2022/12/09 01:08:23;;;;;;;56.17;28.15;;;2.10;99.90;;;-144.05;81.46;125687.94;5013219;28;20160;-79
2022/12/09 01:10:49;;;;;;;55.33;28.90;;;2.10;99.90;;;-144.05;81.61;125687.94;5013597;28;20069;-79
2022/12/09 01:13:16;;;;;;;49.50;27.92;;;2.10;99.90;;;-144.05;81.29;125687.94;5012849;28;20508;-78
2022/12/09 01:15:42;;;;;;;51.58;26.60;;;2.10;99.90;;;-144.05;81.24;125687.94;5011435;28;20038;-77
2022/12/09 01:18:11;;;;;;;60.08;28.13;;;2.20;99.90;;;-144.05;81.77;125687.94;5012596;28;20029;-78
2022/12/09 01:20:37;;;;;;;56.97;30.45;;;2.10;99.90;;;-144.05;81.08;125687.94;5011346;28;20052;-79
2022/12/09 01:23:03;;;;;;;56.35;28.58;;;2.20;99.90;;;-144.05;81.42;125687.94;5013050;28;20034;-79
2022/12/09 01:25:28;;;;;;;55.90;28.75;;;2.20;99.90;;;-144.05;81.47;125687.94;5012617;28;20543;-79
2022/12/09 01:27:54;;;;;;;54.85;28.08;;;2.20;99.90;;;-144.05;81.27;125687.94;5012770;28;20033;-79
2022/12/09 01:30:20;;;;;;;60.72;29.15;;;2.20;99.90;;;-144.05;81.09;125687.94;5010995;28;20124;-79
2022/12/09 01:32:46;;;;;;;62.25;28.63;;;2.20;99.90;;;-144.05;81.35;125687.94;5011219;28;20482;-79
2022/12/09 01:35:12;;;;;;;51.38;28.20;;;2.20;99.90;;;-144.05;81.50;125687.94;5010677;28;20456;-79
2022/12/09 01:37:38;;;;;;;46.55;25.85;;;2.20;99.90;;;-144.05;80.92;125687.94;5011791;28;20060;-78
2022/12/09 01:40:11;;;;;;;44.53;24.10;;;2.20;99.90;;;-144.05;80.49;125687.94;5011779;28;20398;-79
2022/12/09 01:42:37;;;;;;;51.92;27.15;;;2.20;99.90;;;-144.05;80.42;125687.94;5010312;28;20026;-78
2022/12/09 01:45:29;;;;;;;59.92;27.02;;;2.20;99.90;;;-144.05;80.59;125687.94;5012006;28;20516;-80
2022/12/09 01:48:13;;;;;;;55.40;27.95;;;2.20;99.90;;;-144.05;79.92;125687.94;5011514;28;20073;-78
2022/12/09 01:51:04;;;;;;;50.42;27.58;;;2.20;99.90;;;-144.05;79.86;125687.94;5011673;28;20026;-80
2022/12/09 01:53:37;;;;;;;45.72;25.85;;;2.30;99.90;;;-144.05;79.85;125687.94;5010585;28;20030;-80
2022/12/09 01:56:20;;;;;;;45.83;25.42;;;2.20;99.90;;;-144.05;79.64;125687.94;5012809;28;20038;-79
2022/12/09 01:58:48;;;;;;;44.53;26.17;;;2.30;99.90;;;-144.05;79.76;125687.94;5010692;28;20409;-80
2022/12/09 02:01:17;;;;;;;47.47;26.25;;;2.20;99.90;;;-144.05;79.85;125687.94;5012157;28;20104;-78
2022/12/09 02:03:42;;;;;;;51.25;26.80;;;2.30;99.90;;;-144.05;79.82;125687.94;5011495;28;20190;-80
2022/12/09 02:06:09;;;;;;;50.80;26.25;;;2.20;99.90;;;-144.05;79.93;125687.94;5010682;28;20069;-79
2022/12/09 02:08:35;;;;;;;48.35;27.05;;;2.20;99.90;;;-144.05;79.60;125687.94;5025966;28;20037;-80
2022/12/09 02:11:39;;;;;;;49.80;25.98;;;2.20;99.90;;;-144.05;80.04;125687.94;5024705;28;20041;-80
2022/12/09 02:14:41;;;;;;;51.25;26.23;;;2.30;99.90;;;-144.05;79.92;125687.94;5015569;28;20038;-80
2022/12/09 02:17:31;;;;;;;49.00;25.98;;;2.30;99.90;;;-144.05;80.09;125687.94;5013170;28;20141;-80
2022/12/09 02:20:41;;;;;;;53.47;27.42;;;2.30;99.90;;;-144.05;79.58;125687.94;5013976;28;20030;-80
2022/12/09 02:23:23;;;;;;;47.55;25.80;;;2.30;99.90;;;-144.05;79.75;125687.94;5013778;28;20029;-79
2022/12/09 02:26:00;;;;;;;47.67;25.65;;;2.30;99.90;;;-144.05;79.79;125687.94;5013621;28;20441;-79
2022/12/09 02:29:01;;;;;;;48.60;26.85;;;2.30;99.90;;;-144.05;79.65;125687.94;5013958;28;20058;-79
2022/12/09 02:32:36;;;;;;;49.30;25.90;;;2.30;99.90;;;-144.05;80.11;125687.94;5011913;28;20034;-80
2022/12/09 02:35:42;;;;;;;50.60;27.30;;;2.30;99.90;;;-144.05;79.93;125687.94;4965186;28;1385389;-81
2022/12/09 02:38:21;;;;;;;53.65;27.77;;;2.30;99.90;;;-144.05;79.79;125687.94;5013123;28;20525;-78
2022/12/09 02:41:10;;;;;;;48.85;27.27;;;2.30;99.90;;;-144.05;79.77;125687.94;5013291;28;20030;-80
2022/12/09 02:43:45;;;;;;;50.90;26.95;;;2.30;99.90;;;-144.05;79.70;125687.94;5014665;28;20033;-78
2022/12/09 02:46:17;;;;;;;46.33;25.83;;;2.30;99.90;;;-144.05;79.60;125687.94;5016783;28;20037;-78
2022/12/09 02:48:54;;;;;;;52.97;27.98;;;2.30;99.90;;;-144.05;79.62;125687.94;5014507;28;20057;-78
2022/12/09 02:51:25;;;;;;;51.92;26.58;;;2.30;99.90;;;-144.05;79.40;125687.94;5014898;28;20060;-79
2022/12/09 02:54:07;;;;;;;48.45;26.63;;;2.30;99.90;;;-144.05;79.27;125687.94;5016131;28;20572;-79
2022/12/09 02:56:34;;;;;;;50.33;26.08;;;2.30;99.90;;;-144.05;79.10;125687.94;5016201;28;20481;-78
2022/12/09 02:59:01;;;;;;;53.42;25.70;;;2.30;99.90;;;-144.05;79.17;125687.94;5020546;28;20080;-80
2022/12/09 03:02:11;;;;;;;56.40;27.23;;;2.30;99.90;;;-144.05;79.50;125687.94;5016672;28;20037;-80
2022/12/09 03:04:43;;;;;;;57.65;28.73;;;2.20;99.90;;;-144.05;79.81;125687.94;5015183;28;20029;-79
2022/12/09 03:07:43;;;;;;;55.03;27.52;;;2.30;99.90;;;-144.05;79.79;125687.94;5016532;28;20029;-80
2022/12/09 03:10:38;;;;;;;49.60;27.65;;;2.30;99.90;;;-144.05;79.16;125687.94;5013300;28;20053;-80
2022/12/09 03:13:51;;;;;;;52.45;28.52;;;2.20;99.90;;;-144.05;79.50;125687.94;5016078;28;20551;-79
2022/12/09 03:16:26;;;;;;;46.85;26.80;;;2.20;99.90;;;-144.05;79.05;125687.94;5014168;28;20056;-79
2022/12/09 03:19:44;;;;;;;59.35;29.58;;;2.20;99.90;;;-144.05;79.54;125687.94;5015736;28;20030;-80
2022/12/09 03:22:25;;;;;;;51.33;29.10;;;2.20;99.90;;;-144.05;79.90;125687.94;4996576;28;20570;-79
2022/12/09 03:25:37;;;;;;;52.53;27.98;;;2.30;99.90;;;-144.05;79.40;125687.94;5016024;28;20022;-78
2022/12/09 03:28:33;;;;;;;54.42;27.00;;;2.30;99.90;;;-144.05;78.81;125687.94;4954773;28;20086;-79
2022/12/09 03:31:07;;;;;;;;;;;2.30;99.90;;;-144.05;79.28;125687.94;4955387;28;20097;-80
2022/12/09 03:33:33;;;;;;;48.63;25.48;;;2.30;99.90;;;-144.05;78.93;125687.94;4996538;28;19983;-79
2022/12/09 03:36:07;;;;;;;49.15;27.00;;;2.30;99.90;;;-144.05;78.70;125687.94;5013608;28;20061;-79
2022/12/09 03:38:40;;;;;;;52.80;26.95;;;2.20;99.90;;;-144.05;78.83;125687.94;5015517;28;20022;-79
2022/12/09 03:41:31;;;;;;;51.63;26.52;;;2.30;99.90;;;-144.05;78.62;125687.94;5015650;28;20029;-79
2022/12/09 03:44:57;;;;;;;50.65;27.75;;;2.20;99.90;;;-144.05;78.82;125687.94;5015224;28;20748;-79
2022/12/09 03:47:23;;;;;;;49.20;26.17;;;2.20;99.90;;;-144.05;78.36;125687.94;4993513;28;20053;-79
2022/12/09 03:49:49;;;;;;;47.88;26.50;;;2.20;99.90;;;-144.05;78.68;125687.94;5013119;28;20037;-78
2022/12/09 03:52:32;;;;;;;47.47;25.88;;;2.20;99.90;;;-144.05;78.56;125687.94;5014483;28;20389;-77
2022/12/09 03:55:13;;;;;;;46.72;25.00;;;2.20;99.90;;;-144.05;78.48;125687.94;5011938;28;20049;-78
2022/12/09 03:57:45;;;;;;;48.60;24.58;;;2.20;99.90;;;-144.05;78.42;125687.94;5013596;28;20040;-78
2022/12/09 04:00:12;;;;;;;46.25;25.58;;;2.20;99.90;;;-144.05;78.62;125687.94;5014532;28;20068;-78
2022/12/09 04:02:38;;;;;;;44.50;25.48;;;2.10;99.90;;;-144.05;78.55;125687.94;5012839;28;20504;-77
2022/12/09 04:05:05;;;;;;;50.60;25.88;;;2.10;99.90;;;-144.05;78.86;125687.94;5013332;28;20156;-78
2022/12/09 04:07:31;;;;;;;44.67;24.92;;;2.00;99.90;;;-144.05;78.82;125687.94;5014973;28;20036;-78
2022/12/09 04:09:57;;;;;;;41.25;23.95;;;2.00;99.90;;;-144.05;78.79;125687.94;5021044;28;20452;-78
2022/12/09 04:12:23;;;;;;;42.10;24.10;;;1.90;99.90;;;-144.05;78.46;125687.94;5017769;28;20058;-77
2022/12/09 04:14:48;;;;;;;46.92;24.17;;;1.90;99.90;;;-144.05;79.04;125687.94;5019849;28;20069;-77
2022/12/09 04:17:14;;;;;;;46.60;25.98;;;1.80;99.90;;;-144.05;78.90;125687.94;5015341;28;20026;-78
2022/12/09 04:19:40;;;;;;;50.28;27.00;;;1.80;99.90;;;-144.05;79.17;125687.94;5014764;28;20062;-79
2022/12/09 04:22:06;;;;;;;51.75;26.55;;;1.80;99.90;;;-144.05;79.38;125687.94;5014971;28;20034;-78
2022/12/09 04:24:32;;;;;;;53.95;28.63;;;1.80;99.90;;;-144.05;79.45;125687.94;5013477;28;20049;-78
2022/12/09 04:26:58;;;;;;;51.63;27.58;;;1.80;99.90;;;-144.05;79.49;125687.94;5014090;28;20034;-78
2022/12/09 04:29:23;;;;;;;56.13;28.17;;;1.80;99.90;;;-144.05;79.69;125687.94;5014267;28;20029;-79
2022/12/09 04:31:49;;;;;;;56.22;28.38;;;1.90;99.90;;;-144.05;79.34;125687.94;5014888;28;20045;-78
2022/12/09 04:34:15;;;;;;;55.92;28.30;;;1.90;99.90;;;-144.05;79.76;125687.94;5012833;28;20045;-78
2022/12/09 04:36:41;;;;;;;56.50;27.63;;;1.90;99.90;;;-144.05;79.61;125687.94;5015743;28;20238;-77
2022/12/09 04:39:07;;;;;;;53.75;28.55;;;1.90;99.90;;;-144.05;79.29;125687.94;5035165;28;20053;-77
2022/12/09 04:41:33;;;;;;;55.83;28.10;;;1.90;99.90;;;-144.05;78.99;125687.94;5020968;28;20033;-78
2022/12/09 04:44:00;;;;;;;54.13;28.65;;;1.90;99.90;;;-144.05;78.92;125687.94;5016176;28;20034;-79
2022/12/09 04:46:26;;;;;;;49.75;26.63;;;1.80;99.90;;;-144.05;79.10;125687.94;5015843;28;20120;-78
2022/12/09 04:48:52;;;;;;;47.17;25.95;;;1.80;99.90;;;-144.05;78.82;125687.94;5013589;28;20056;-80
2022/12/09 04:51:18;;;;;;;43.85;23.83;;;1.80;99.90;;;-144.05;78.85;125687.94;5015899;28;20037;-80
2022/12/09 04:53:44;;;;;;;45.63;24.65;;;1.70;99.90;;;-144.05;79.00;125687.94;5013777;28;20428;-80
2022/12/09 04:56:18;;;;;;;46.08;26.58;;;1.70;99.90;;;-144.05;78.87;125687.94;5015361;28;20040;-79
2022/12/09 04:58:46;;;;;;;44.63;23.58;;;1.60;99.90;;;-144.05;78.93;125687.94;5014934;28;20142;-77
2022/12/09 05:01:19;;;;;;;44.63;24.23;;;1.60;99.90;;;-144.05;79.47;125687.94;5015124;28;20370;-80
2022/12/09 05:03:53;;;;;;;48.67;25.02;;;1.60;99.90;;;-144.05;79.12;125687.94;5013427;28;20029;-77
2022/12/09 05:06:21;;;;;;;47.15;24.17;;;1.60;99.90;;;-144.05;79.27;125687.94;5014227;28;20034;-78
2022/12/09 05:08:48;;;;;;;44.42;24.58;;;1.50;99.90;;;-144.05;78.95;125687.94;5014681;28;20034;-79
2022/12/09 05:11:17;;;;;;;45.67;24.02;;;1.50;99.90;;;-144.05;79.26;125687.94;5014823;28;20095;-79
2022/12/09 05:13:43;;;;;;;44.58;24.98;;;1.60;99.90;;;-144.05;79.03;125687.94;5013399;28;20066;-79
2022/12/09 05:16:14;;;;;;;42.00;21.85;;;1.60;99.90;;;-144.05;79.48;125687.94;5014984;28;20450;-79
2022/12/09 05:18:40;;;;;;;50.30;25.75;;;1.60;99.90;;;-144.05;79.20;125687.94;5017435;28;20057;-79
2022/12/09 05:21:10;;;;;;;53.97;27.73;;;1.60;99.90;;;-144.05;79.49;125687.94;5014163;28;20038;-78
2022/12/09 05:23:37;;;;;;;50.92;26.67;;;1.60;99.90;;;-144.05;79.15;125687.94;5015257;28;20041;-79
2022/12/09 05:26:08;;;;;;;55.60;27.63;;;1.60;99.90;;;-144.05;79.25;125687.94;5014677;28;20104;-80
2022/12/09 05:28:34;;;;;;;50.63;27.48;;;1.60;99.90;;;-144.05;79.23;125687.94;5013723;28;20068;-78
2022/12/09 05:31:05;;;;;;;48.50;26.33;;;1.60;99.90;;;-144.05;79.57;125687.94;5013415;28;20033;-80
2022/12/09 05:33:31;;;;;;;45.97;25.50;;;1.60;99.90;;;-144.05;79.58;125687.94;5014193;28;20033;-79
2022/12/09 05:35:58;;;;;;;56.17;27.38;;;1.60;99.90;;;-144.05;79.79;125687.94;5013459;28;20049;-78
2022/12/09 05:38:25;;;;;;;52.58;27.95;;;1.60;99.90;;;-144.05;79.52;125687.94;5013976;28;20398;-79
2022/12/09 05:40:51;;;;;;;49.20;25.88;;;1.60;99.90;;;-144.05;79.92;125687.94;5013821;28;20448;-79
2022/12/09 05:43:18;;;;;;;52.10;27.95;;;1.60;99.90;;;-144.05;80.39;125687.94;5013460;28;20025;-79
2022/12/09 05:45:44;;;;;;;60.55;30.27;;;1.60;99.90;;;-144.05;80.75;125687.94;5013388;28;20061;-77
2022/12/09 05:48:10;;;;;;;64.75;30.88;;;1.70;99.90;;;-144.05;80.40;125687.94;5013500;28;20037;-80
2022/12/09 05:50:36;;;;;;;63.70;31.52;;;1.70;99.90;;;-144.05;80.71;125687.94;5014239;28;20048;-80
2022/12/09 05:53:03;;;;;;;69.85;31.88;;;1.80;99.90;;;-144.05;80.59;125687.94;5012554;28;20038;-80
2022/12/09 05:55:29;;;;;;;59.63;31.63;;;1.80;99.90;;;-144.05;80.50;125687.94;5012480;28;20475;-81
2022/12/09 05:57:55;;;;;;;64.40;32.30;;;1.90;99.90;;;-144.05;80.00;125687.94;5012608;28;20034;-78
2022/12/09 06:00:21;;;;;;;67.85;31.95;;;1.90;99.90;;;-144.05;80.40;125687.94;5013777;28;20084;-79
2022/12/09 06:02:47;;;;;;;59.22;31.38;;;2.00;99.90;;;-144.05;80.17;125687.94;5012418;28;20033;-79
2022/12/09 06:05:13;;;;;;;53.80;29.40;;;2.00;99.90;;;-144.05;79.75;125687.94;5012467;28;20454;-79
2022/12/09 06:07:39;;;;;;;58.67;29.30;;;2.00;99.90;;;-144.05;79.35;125687.94;5013594;28;20083;-81
2022/12/09 06:10:06;;;;;;;54.92;29.40;;;2.00;99.90;;;-144.05;79.49;125687.94;5013953;28;20030;-80
2022/12/09 06:12:32;;;;;;;56.03;28.63;;;2.00;99.90;;;-144.05;79.85;125687.94;5013145;28;20045;-81
2022/12/09 06:14:58;;;;;;;63.65;30.02;;;2.00;99.90;;;-144.05;79.90;125687.94;5014169;28;20038;-79
2022/12/09 06:17:24;;;;;;;55.05;27.58;;;2.00;99.90;;;-144.05;79.82;125687.94;5014340;28;20362;-79
2022/12/09 06:19:50;;;;;;;60.50;29.10;;;2.00;99.90;;;-144.05;79.97;125687.94;5017595;28;20033;-79
2022/12/09 06:22:16;;;;;;;60.88;29.83;;;2.00;99.90;;;-144.05;79.79;125687.94;5018100;28;20076;-80
2022/12/09 06:24:41;;;;;;;53.90;28.17;;;2.00;99.90;;;-144.05;79.40;125687.94;5017326;28;20026;-78
2022/12/09 06:27:07;;;;;;;59.63;28.25;;;2.00;99.90;;;-144.05;79.30;125687.94;5016472;28;20037;-79
2022/12/09 06:29:33;;;;;;;53.55;27.35;;;2.00;99.90;;;-144.05;79.47;125687.94;5017649;28;20030;-79
2022/12/09 06:31:59;;;;;;;63.28;29.25;;;2.00;99.90;;;-144.05;79.07;125687.94;5017632;28;20398;-81
2022/12/09 06:34:25;;;;;;;55.80;28.23;;;2.10;99.90;;;-144.05;79.23;125687.94;5016109;28;20124;-79
2022/12/09 06:36:51;;;;;;;60.00;26.92;;;2.00;99.90;;;-144.05;79.15;125687.94;5016464;28;20034;-79
2022/12/09 06:39:17;;;;;;;59.53;27.45;;;2.10;99.90;;;-144.05;79.17;125687.94;5016291;28;20508;-79
2022/12/09 06:41:42;;;;;;;55.88;28.92;;;2.00;99.90;;;-144.05;79.13;125687.94;5017851;28;20152;-79
2022/12/09 06:44:11;;;;;;;54.75;27.27;;;2.10;99.90;;;-144.05;78.91;125687.94;5017136;28;20022;-80
2022/12/09 06:46:37;;;;;;;55.35;27.25;;;2.10;99.90;;;-144.05;78.77;125687.94;5018107;28;20178;-79
2022/12/09 06:49:04;;;;;;;60.63;29.25;;;2.10;99.90;;;-144.05;78.75;125687.94;5016248;28;20125;-79
2022/12/09 06:51:30;;;;;;;54.95;27.38;;;2.00;99.90;;;-144.05;78.67;125687.94;5016089;28;20034;-81
2022/12/09 06:53:56;;;;;;;50.45;25.73;;;2.10;99.90;;;-144.05;78.48;125687.94;5016167;28;20058;-79
2022/12/09 06:56:23;;;;;;;53.72;27.40;;;2.10;99.90;;;-144.05;78.25;125687.94;5016632;28;20049;-78
2022/12/09 06:58:49;;;;;;;53.03;27.98;;;2.10;99.90;;;-144.05;78.11;125687.94;5015825;28;20393;-79
2022/12/09 07:01:23;;;;;;;50.72;25.45;;;2.10;99.90;;;-144.05;78.23;125687.94;5017256;28;20036;-78
2022/12/09 07:03:55;;;;;;;43.72;23.30;;;2.10;99.90;;;-144.05;77.65;125687.94;5015939;28;20022;-79
2022/12/09 07:06:43;;;;;;;45.22;24.08;;;2.00;99.90;;;-144.05;77.58;125687.94;5020568;28;20033;-78
2022/12/09 07:09:16;;;;;;;47.08;23.65;;;2.00;99.90;;;-144.05;77.37;125687.94;5035831;28;20034;-79
2022/12/09 07:11:44;;;;;;;48.38;26.65;;;2.10;99.90;;;-144.05;76.90;125687.94;5017584;28;20392;-79
2022/12/09 07:14:12;;;;;;;46.83;24.38;;;2.10;99.90;;;-144.05;77.36;125687.94;5018445;28;20313;-79
2022/12/09 07:16:38;;;;;;;49.17;26.30;;;2.10;99.90;;;-144.05;77.29;125687.94;5018142;28;20084;-79
2022/12/09 07:19:05;;;;;;;42.33;24.50;;;2.00;99.90;;;-144.05;77.24;125687.94;5016521;28;20136;-79
2022/12/09 07:21:32;;;;;;;51.10;26.02;;;2.00;99.90;;;-144.05;77.34;125687.94;5017815;28;20033;-81
2022/12/09 07:24:01;;;;;;;50.53;25.75;;;2.00;99.90;;;-144.05;77.46;125687.94;5015978;28;20412;-81
2022/12/09 07:26:32;;;;;;;48.90;26.75;;;2.00;99.90;;;-144.05;77.63;125687.94;5017256;28;20108;-81
2022/12/09 07:29:02;;;;;;;50.42;26.67;;;2.00;99.90;;;-144.05;77.52;125687.94;5017086;28;20052;-80
2022/12/09 07:31:28;;;;;;;44.20;23.02;;;2.00;99.90;;;-144.05;77.37;125687.94;5015129;28;20532;-79
2022/12/09 07:33:57;;;;;;;38.67;20.30;;;2.00;99.90;;;-144.05;76.81;125687.94;5017013;28;20053;-79
2022/12/09 07:36:27;;;;;;;42.95;22.35;;;2.00;99.90;;;-144.05;76.71;125687.94;5019639;28;20030;-79
2022/12/09 07:39:03;;;;;;;48.60;24.95;;;2.00;99.90;;;-144.05;76.49;125687.94;5016060;28;20021;-79
2022/12/09 07:41:29;;;;;;;46.50;23.48;;;2.00;99.90;;;-144.05;76.43;125687.94;5015802;28;20061;-79
2022/12/09 07:43:56;;;;;;;46.60;25.92;;;2.00;99.90;;;-144.05;76.81;125687.94;5014798;28;20064;-79
2022/12/09 07:46:27;;;;;;;45.45;24.63;;;2.10;99.90;;;-144.05;76.67;125687.94;5014967;28;20030;-79
2022/12/09 07:48:55;;;;;;;45.25;26.33;;;2.10;99.90;;;-144.05;76.76;125687.94;5017382;28;20050;-80
2022/12/09 07:51:23;;;;;;;44.08;23.88;;;2.10;99.90;;;-144.05;76.83;125687.94;5016478;28;20218;-79
2022/12/09 07:53:50;;;;;;;48.22;26.77;;;2.10;99.90;;;-144.05;76.94;125687.94;5015430;28;20397;-79
2022/12/09 07:56:18;;;;;;;57.03;29.23;;;2.10;99.90;;;-144.05;76.59;125687.94;5016645;28;20034;-81
2022/12/09 07:58:46;;;;;;;53.15;28.08;;;2.10;99.90;;;-144.05;76.99;125687.94;5018066;28;20135;-80
2022/12/09 08:01:17;;;;;;;50.03;25.60;;;2.10;99.90;;;-144.05;76.96;125687.94;5020171;28;20137;-80
2022/12/09 08:03:45;;;;;;;44.60;24.10;;;2.20;99.90;;;-144.05;77.26;125687.94;5021711;28;20033;-81
2022/12/09 08:06:15;;;;;;;45.45;24.48;;;2.20;99.90;;;-144.05;76.94;125687.94;5024772;28;20029;-80
2022/12/09 08:08:43;;;;;;;51.72;24.50;;;2.20;99.90;;;-144.05;77.04;125687.94;5024852;28;20504;-80
2022/12/09 08:11:23;;;;;;;49.38;26.20;;;2.20;99.90;;;-144.05;76.88;125687.94;5025274;28;20040;-80
2022/12/09 08:13:50;;;;;;;53.00;26.35;;;2.20;99.90;;;-144.05;77.08;125687.94;5025083;28;20022;-80
2022/12/09 08:16:20;;;;;;;53.10;27.10;;;2.20;99.90;;;-144.05;77.09;125687.94;5022646;28;20088;-80
2022/12/09 08:18:50;;;;;;;43.03;23.55;;;2.20;99.90;;;-144.05;77.18;125687.94;5014831;28;20026;-80
2022/12/09 08:21:28;;;;;;;45.20;23.98;;;2.20;99.90;;;-144.05;77.30;125687.94;5014983;28;20152;-79
2022/12/09 08:23:58;;;;;;;47.90;26.20;;;2.20;99.90;;;-144.05;76.95;125687.94;5015342;28;20096;-80
2022/12/09 08:26:30;;;;;;;53.90;26.65;;;2.20;99.90;;;-144.05;77.43;125687.94;5014996;28;20026;-79
2022/12/09 08:28:55;;;;;;;45.28;25.15;;;2.20;99.90;;;-144.05;77.54;125687.94;5014610;28;20034;-79
2022/12/09 08:31:24;;;;;;;43.47;23.42;;;2.20;99.90;;;-144.05;77.48;125687.94;5014756;28;20034;-78
2022/12/09 08:33:52;;;;;;;41.67;22.17;;;2.30;99.90;;;-144.05;77.15;125687.94;5014433;28;20038;-79
2022/12/09 08:36:25;;;;;;;42.90;23.30;;;2.30;99.90;;;-144.05;76.75;125687.94;5014303;28;20401;-78
2022/12/09 08:38:52;;;;;;;57.05;29.83;;;2.30;99.90;;;-144.05;76.80;125687.94;5014733;28;20109;-79
2022/12/09 08:41:33;;;;;;;80.00;39.95;;;2.40;99.90;;;-144.05;76.14;125687.94;5013714;28;20251;-78
2022/12/09 08:44:13;;;;;;;75.57;37.92;;;2.50;99.90;;;-144.05;75.67;125687.94;5014072;28;20050;-78
2022/12/09 08:46:43;;;;;;;77.65;39.05;;;2.50;99.90;;;-144.05;75.91;125687.94;5014287;28;20481;-79
2022/12/09 08:49:10;;;;;;;56.55;28.40;;;2.60;99.90;;;-144.05;74.41;125687.94;5014355;28;20045;-80
2022/12/09 08:51:36;;;;;;;55.33;30.13;;;2.70;99.90;;;-144.05;74.75;125687.94;5013251;28;20038;-78
2022/12/09 08:54:04;;;;;;;63.08;32.47;;;2.80;99.90;;;-144.05;74.46;125687.94;5013153;28;20030;-79
2022/12/09 08:56:31;;;;;;;52.60;27.63;;;3.00;99.90;;;-144.05;74.35;125687.94;5014866;28;20078;-78
2022/12/09 08:58:57;;;;;;;56.20;28.02;;;3.00;99.90;;;-144.05;74.21;125687.94;5013443;28;20543;-79
2022/12/09 09:01:31;;;;;;;46.28;25.90;;;3.10;99.90;;;-144.05;73.69;125687.94;5014788;28;20030;-79
2022/12/09 09:04:08;;;;;;;54.00;26.17;;;3.20;99.90;;;-144.05;73.41;125687.94;5015812;28;20066;-78
2022/12/09 09:06:39;;;;;;;45.90;24.90;;;3.30;99.90;;;-144.05;73.27;125687.94;5015250;28;20124;-79
2022/12/09 09:09:08;;;;;;;46.30;25.85;;;3.50;99.90;;;-144.05;72.68;125687.94;5016051;28;20441;-79
2022/12/09 09:11:34;;;;;;;44.50;24.75;;;3.70;99.90;;;-144.05;72.31;125687.94;5015431;28;20040;-78
2022/12/09 09:14:04;;;;;;;46.35;24.55;;;3.80;99.90;;;-144.05;71.35;125687.94;5015430;28;20433;-79
2022/12/09 09:16:31;;;;;;;44.00;24.15;;;3.80;99.90;;;-144.05;70.41;125687.94;5014245;28;20030;-78
2022/12/09 09:18:57;;;;;;;41.63;22.77;;;3.70;99.90;;;-144.05;69.76;125687.94;5013027;28;20030;-78
2022/12/09 09:21:28;;;;;;;43.10;23.75;;;3.50;99.90;;;-144.05;70.04;125687.94;5012975;28;20112;-78
2022/12/09 09:23:54;;;;;;;41.55;22.70;;;3.40;99.90;;;-144.05;70.63;125687.94;5013552;28;20076;-79
2022/12/09 09:26:24;;;;;;;42.50;23.33;;;3.40;99.90;;;-144.05;70.82;125687.94;5013956;28;20432;-80
2022/12/09 09:28:53;;;;;;;46.15;22.58;;;3.30;99.90;;;-144.05;70.62;125687.94;5014574;28;20033;-79
2022/12/09 09:31:22;;;;;;;45.45;23.52;;;3.20;99.90;;;-144.05;71.05;125687.94;5014984;28;20511;-78
2022/12/09 09:33:49;;;;;;;47.92;25.05;;;3.20;99.90;;;-144.05;71.41;125687.94;5014620;28;20405;-80
2022/12/09 09:36:22;;;;;;;50.90;25.65;;;3.30;99.90;;;-144.05;71.03;125687.94;5020043;28;20060;-78
2022/12/09 09:38:53;;;;;;;52.95;25.00;;;3.30;99.90;;;-144.05;70.61;125687.94;5028699;28;20026;-80
2022/12/09 09:41:51;;;;;;;52.72;25.13;;;3.30;99.90;;;-144.05;70.83;125687.94;5014462;28;20448;-78
2022/12/09 09:44:54;;;;;;;49.92;24.05;;;3.30;99.90;;;-144.05;70.79;125687.94;5014257;28;20026;-81
2022/12/09 09:47:47;;;;;;;40.50;23.08;;;3.40;99.90;;;-144.05;70.65;125687.94;4955878;28;20067;-81
2022/12/09 09:50:37;;;;;;;38.10;22.17;;;3.40;99.90;;;-144.05;70.55;125687.94;5016221;28;20044;-79
2022/12/09 09:53:36;;;;;;;44.38;23.88;;;3.30;99.90;;;-144.05;70.92;125687.94;5015876;28;20102;-79
2022/12/09 09:56:21;;;;;;;41.22;22.95;;;3.30;99.90;;;-144.05;70.60;125687.94;4984234;28;20049;-79
2022/12/09 09:59:27;;;;;;;45.42;23.83;;;3.20;99.90;;;-144.05;71.31;125687.94;5021976;28;20161;-80
2022/12/09 10:02:17;;;;;;;36.13;19.97;;;3.10;99.90;;;-144.05;71.35;125687.94;5016488;28;20034;-80
2022/12/09 10:05:20;;;;;;;49.20;24.75;;;3.10;99.90;;;-144.05;71.29;125687.94;5015265;28;20033;-79
2022/12/09 10:07:57;;;;;;;44.40;23.40;;;3.00;99.90;;;-144.05;71.22;125687.94;5015892;28;20097;-79
2022/12/09 10:11:12;;;;;;;46.22;24.75;;;3.00;99.90;;;-144.05;71.80;125687.94;5014497;28;20065;-78
2022/12/09 10:14:42;;;;;;;49.20;25.80;;;3.00;99.90;;;-144.05;72.15;125687.94;5012907;28;20030;-78
2022/12/09 10:18:12;;;;;;;45.67;24.55;;;3.00;99.90;;;-144.05;72.16;125687.94;4934403;29;20447;-78